Terminal Aerodrome Forecast
Issued by NWS Chicago, IL

Home | Current Version | Previous Version | Text Only | Print | Product List | Glossary On
Versions: 1 2 3 4 5 6 7 8 9 10 11 12 13 14 15 16 17 18 19 20 21 22 23 24 25 26 27 28 29 30 31 32
000
FTUS43 KLOT 190301 AAA
TAFRFD
TAF AMD
KRFD 190301Z 1903/1924 17008KT 5SM BR BKN009
     FM190330 18007KT 3SM BR SCT008
     FM190600 18005KT 1SM BR SCT006
     FM191500 16008KT 6SM BR SCT015 BKN100
     FM192000 10006KT P6SM OVC035=

USA.gov is the U.S. government's official web portal to all federal, state and local government web resources and services.